createdAt,value
2022-10-19T00:01:14.681Z,100993.50
2022-10-19T00:03:43.187Z,100993.81
2022-10-19T00:06:15.626Z,101000.88
2022-10-19T00:08:42.934Z,100988.25
2022-10-19T00:11:10.523Z,100989.75
2022-10-19T00:13:37.431Z,100984.34
2022-10-19T00:16:11.517Z,100977.47
2022-10-19T00:18:39.736Z,100974.66
2022-10-19T00:21:08.561Z,100972.31
2022-10-19T00:23:35.812Z,100965.34
2022-10-19T00:26:03.040Z,100959.59
2022-10-19T00:28:30.561Z,100956.78
2022-10-19T00:31:06.657Z,100955.00
2022-10-19T00:33:33.914Z,100956.66
2022-10-19T00:36:01.559Z,100956.03
2022-10-19T00:38:28.332Z,100950.19
2022-10-19T00:40:55.309Z,100939.34
2022-10-19T00:43:24.867Z,100937.78
2022-10-19T00:45:52.955Z,100939.81
2022-10-19T00:48:31.919Z,100939.84
2022-10-19T00:51:00.394Z,100948.69
2022-10-19T00:53:30.451Z,100933.97
2022-10-19T00:55:59.409Z,100926.84
2022-10-19T00:58:26.154Z,100933.47
2022-10-19T01:00:53.293Z,100926.28
2022-10-19T01:03:21.163Z,100914.88
2022-10-19T01:05:48.638Z,100917.53
2022-10-19T01:08:15.787Z,100917.84
2022-10-19T01:11:03.976Z,100910.66
2022-10-19T01:13:54.196Z,100908.28
2022-10-19T01:16:42.478Z,100911.72
2022-10-19T01:19:44.707Z,100898.59
2022-10-19T01:22:36.348Z,100886.81
2022-10-19T01:25:37.242Z,100896.53
2022-10-19T01:28:34.620Z,100886.72
2022-10-19T01:31:18.205Z,100893.03
2022-10-19T01:34:14.967Z,100882.88
2022-10-19T01:37:02.573Z,100881.16
2022-10-19T01:39:51.981Z,100882.16
2022-10-19T01:42:52.346Z,100881.38
2022-10-19T01:45:25.127Z,100874.94
2022-10-19T01:48:02.632Z,100877.78
2022-10-19T01:50:44.777Z,100877.13
2022-10-19T01:53:14.101Z,100876.94
2022-10-19T01:55:44.897Z,100877.47
2022-10-19T01:58:17.117Z,100877.56
2022-10-19T02:00:46.770Z,100872.50
2022-10-19T02:03:14.596Z,100879.03
2022-10-19T02:05:45.803Z,100875.72
2022-10-19T02:08:18.304Z,100867.31
2022-10-19T02:10:46.474Z,100870.06
2022-10-19T02:13:16.407Z,100868.75
2022-10-19T02:15:47.662Z,100871.38
2022-10-19T02:18:19.803Z,100870.63
2022-10-19T02:20:47.132Z,100869.91
2022-10-19T02:23:19.200Z,100872.72
2022-10-19T02:25:46.543Z,100864.63
2022-10-19T02:28:13.362Z,100871.69
2022-10-19T02:30:40.408Z,100880.53
2022-10-19T02:33:07.943Z,100877.81
2022-10-19T02:35:35.064Z,100878.59
2022-10-19T02:38:04.393Z,100871.53
2022-10-19T02:40:36.676Z,100873.25
2022-10-19T02:43:07.661Z,100874.41
2022-10-19T02:45:44.845Z,100867.44
2022-10-19T02:48:18.485Z,100872.38
2022-10-19T02:50:47.770Z,100868.75
2022-10-19T02:53:16.026Z,100863.31
2022-10-19T02:55:43.453Z,100860.97
2022-10-19T02:58:10.242Z,100854.44
2022-10-19T03:00:37.238Z,100854.97
2022-10-19T03:03:04.008Z,100860.88
2022-10-19T03:05:31.059Z,100868.53
2022-10-19T03:07:57.771Z,100867.88
2022-10-19T03:10:24.685Z,100874.72
2022-10-19T03:12:51.459Z,100880.22
2022-10-19T03:15:19.667Z,100885.91
2022-10-19T03:17:46.403Z,100883.41
2022-10-19T03:20:13.359Z,100878.72
2022-10-19T03:22:40.143Z,100876.84
2022-10-19T03:25:07.505Z,100869.88
2022-10-19T03:27:34.403Z,100862.72
2022-10-19T03:30:01.668Z,100870.53
2022-10-19T03:32:28.404Z,100864.94
2022-10-19T03:34:55.347Z,100859.50
2022-10-19T03:37:22.100Z,100858.50
2022-10-19T03:39:49.002Z,100868.09
2022-10-19T03:42:15.769Z,100875.50
2022-10-19T03:44:42.743Z,100876.63
2022-10-19T03:47:09.460Z,100879.47
2022-10-19T03:49:38.116Z,100884.94
2022-10-19T03:52:07.002Z,100873.53
2022-10-19T03:54:33.928Z,100871.66
2022-10-19T03:57:00.634Z,100870.31
2022-10-19T03:59:27.663Z,100862.50
2022-10-19T04:01:54.478Z,100869.78
2022-10-19T04:04:21.470Z,100868.81
2022-10-19T04:06:50.100Z,100861.00
2022-10-19T04:09:19.279Z,100875.66
2022-10-19T04:11:46.263Z,100877.97
2022-10-19T04:14:22.708Z,100868.34
2022-10-19T04:17:01.245Z,100874.56
2022-10-19T04:19:28.301Z,100871.94
2022-10-19T04:21:55.057Z,100874.63
2022-10-19T04:24:22.224Z,100867.66
2022-10-19T04:26:55.071Z,100869.63
2022-10-19T04:29:26.469Z,100870.56
2022-10-19T04:31:56.668Z,100865.34
2022-10-19T04:34:24.189Z,100870.91
2022-10-19T04:36:51.036Z,100863.31
2022-10-19T04:39:17.992Z,100864.41
2022-10-19T04:41:44.753Z,100869.00
2022-10-19T04:44:11.741Z,100863.25
2022-10-19T04:46:38.852Z,100864.16
2022-10-19T04:49:06.906Z,100867.88
2022-10-19T04:51:34.594Z,100866.41
2022-10-19T04:54:04.850Z,100869.13
2022-10-19T04:56:32.473Z,100871.94
2022-10-19T04:59:00.881Z,100867.63
2022-10-19T05:01:29.383Z,100868.16
2022-10-19T05:03:59.492Z,100867.47
2022-10-19T05:06:26.366Z,100867.66
2022-10-19T05:08:53.368Z,100876.00
2022-10-19T05:11:20.830Z,100877.03
2022-10-19T05:13:48.522Z,100883.41
2022-10-19T05:16:18.044Z,100882.84
2022-10-19T05:18:56.099Z,100881.91
2022-10-19T05:21:22.886Z,100867.13
2022-10-19T05:23:54.506Z,100884.53
2022-10-19T05:26:23.976Z,100904.13
2022-10-19T05:28:57.064Z,100891.31
2022-10-19T05:31:26.491Z,100909.91
2022-10-19T05:33:53.781Z,100891.19
2022-10-19T05:36:25.381Z,100909.72
2022-10-19T05:38:54.028Z,100913.16
2022-10-19T05:41:22.135Z,100916.88
2022-10-19T05:43:53.779Z,100908.78
2022-10-19T05:46:20.765Z,100917.50
2022-10-19T05:48:48.043Z,100916.56
2022-10-19T05:51:18.899Z,100915.19
2022-10-19T05:53:46.369Z,100909.06
2022-10-19T05:56:18.320Z,100911.91
2022-10-19T05:58:46.094Z,100918.38
2022-10-19T06:01:14.166Z,100917.03
2022-10-19T06:03:41.208Z,100923.22
2022-10-19T06:06:09.542Z,100930.56
2022-10-19T06:08:37.869Z,100933.97
2022-10-19T06:11:20.453Z,100940.38
2022-10-19T06:13:50.660Z,100937.31
2022-10-19T06:16:19.194Z,100951.94
2022-10-19T06:18:46.683Z,100941.31
2022-10-19T06:21:15.478Z,100942.53
2022-10-19T06:26:15.185Z,100940.56
2022-10-19T06:28:43.649Z,100950.63
2022-10-19T06:31:11.432Z,100944.72
2022-10-19T06:33:40.352Z,100953.16
2022-10-19T06:36:16.367Z,100957.53
2022-10-19T06:38:43.969Z,100962.38
2022-10-19T06:41:11.721Z,100968.34
2022-10-19T06:43:39.484Z,100965.59
2022-10-19T06:46:11.708Z,100963.66
2022-10-19T06:48:38.823Z,100969.44
2022-10-19T06:51:09.667Z,100976.69
2022-10-19T06:53:37.194Z,100980.06
2022-10-19T06:56:05.980Z,100981.88
2022-10-19T06:58:37.939Z,100974.94
2022-10-19T07:01:07.695Z,100979.47
2022-10-19T07:03:35.735Z,100988.50
2022-10-19T07:06:05.570Z,100998.72
2022-10-19T07:08:34.112Z,100989.19
2022-10-19T07:11:03.345Z,101008.50
2022-10-19T07:13:31.085Z,101013.72
2022-10-19T07:15:59.982Z,100997.94
2022-10-19T07:18:27.583Z,101009.31
2022-10-19T07:21:05.721Z,101017.94
2022-10-19T07:23:34.402Z,101012.41
2022-10-19T07:26:12.699Z,101033.44
2022-10-19T07:28:41.427Z,101032.34
2022-10-19T07:31:11.949Z,101024.28
2022-10-19T07:33:39.023Z,101028.59
2022-10-19T07:36:08.598Z,101019.66
2022-10-19T07:38:36.065Z,101027.94
2022-10-19T07:41:08.580Z,101020.06
2022-10-19T07:43:36.307Z,101013.59
2022-10-19T07:46:06.290Z,101016.38
2022-10-19T07:48:34.441Z,101015.31
2022-10-19T07:51:02.587Z,101013.06
2022-10-19T07:53:29.739Z,101005.63
2022-10-19T07:55:56.553Z,101008.59
2022-10-19T07:58:23.489Z,101005.38
2022-10-19T08:00:50.244Z,101011.19
2022-10-19T08:06:06.083Z,101003.28
2022-10-19T08:08:33.911Z,100991.78
2022-10-19T08:11:08.551Z,100994.53
2022-10-19T08:13:35.941Z,100991.41
2022-10-19T08:16:02.888Z,100996.78
2022-10-19T08:21:02.465Z,101003.13
2022-10-19T08:23:29.434Z,101007.47
2022-10-19T08:25:59.947Z,101004.81
2022-10-19T08:28:26.899Z,101010.75
2022-10-19T08:30:58.073Z,101003.38
2022-10-19T08:33:26.464Z,100996.13
2022-10-19T08:35:54.173Z,101004.59
2022-10-19T08:38:21.089Z,101008.25
2022-10-19T08:40:47.983Z,101010.25
2022-10-19T08:43:30.644Z,101008.22
2022-10-19T08:46:10.286Z,101012.75
2022-10-19T08:48:39.283Z,101008.06
2022-10-19T08:51:09.292Z,101004.72
2022-10-19T08:53:39.496Z,100996.38
2022-10-19T08:56:49.830Z,101004.59
2022-10-19T08:59:59.372Z,100996.84
2022-10-19T09:02:54.411Z,100991.84
2022-10-19T09:05:28.425Z,100998.59
2022-10-19T09:07:55.802Z,100992.09
2022-10-19T09:10:28.112Z,100986.63
2022-10-19T09:13:05.445Z,100994.97
2022-10-19T09:15:41.525Z,100996.50
2022-10-19T09:18:12.220Z,100993.19
2022-10-19T09:20:43.272Z,100996.59
2022-10-19T09:23:40.500Z,100993.22
2022-10-19T09:26:19.495Z,100995.44
2022-10-19T09:28:58.482Z,101001.41
2022-10-19T09:31:34.081Z,100997.25
2022-10-19T09:34:07.669Z,100990.97
2022-10-19T09:36:57.262Z,100995.22
2022-10-19T09:39:28.660Z,101001.84
2022-10-19T09:42:07.741Z,101001.84
2022-10-19T09:44:34.841Z,101009.81
2022-10-19T09:47:33.008Z,101005.81
2022-10-19T09:50:15.300Z,101012.91
2022-10-19T09:52:44.048Z,101001.81
2022-10-19T09:55:19.770Z,101001.56
2022-10-19T09:57:49.602Z,100997.63
2022-10-19T10:00:25.552Z,100991.66
2022-10-19T10:02:54.267Z,100990.78
2022-10-19T10:05:32.458Z,100983.84
2022-10-19T10:07:59.451Z,100984.47
2022-10-19T10:10:38.791Z,100984.00
2022-10-19T10:13:06.236Z,100989.31
2022-10-19T10:15:43.999Z,100981.16
2022-10-19T10:18:15.469Z,100975.47
2022-10-19T10:23:27.659Z,100962.94
2022-10-19T10:25:58.985Z,100959.44
2022-10-19T10:28:28.534Z,100949.44
2022-10-19T10:31:19.006Z,100952.66
2022-10-19T10:33:54.536Z,100943.41
2022-10-19T10:36:24.916Z,100944.19
2022-10-19T10:38:54.684Z,100938.06
2022-10-19T10:41:23.549Z,100941.06
2022-10-19T10:43:59.566Z,100935.31
2022-10-19T10:46:42.577Z,100936.44
2022-10-19T10:49:21.448Z,100937.63
2022-10-19T10:51:55.120Z,100939.31
2022-10-19T10:54:23.752Z,100936.84
2022-10-19T10:57:05.579Z,100923.91
2022-10-19T10:59:56.515Z,100919.53
2022-10-19T11:02:52.070Z,100922.72
2022-10-19T11:05:24.366Z,100921.75
2022-10-19T11:07:58.798Z,100916.00
2022-10-19T11:10:33.304Z,100913.25
2022-10-19T11:13:15.413Z,100906.66
2022-10-19T11:16:03.113Z,100912.31
2022-10-19T11:18:50.133Z,100904.41
2022-10-19T11:21:19.637Z,100910.81
2022-10-19T11:24:11.672Z,100899.09
2022-10-19T11:26:41.356Z,100900.66
2022-10-19T11:29:14.085Z,100900.09
2022-10-19T11:31:48.330Z,100887.34
2022-10-19T11:34:47.409Z,100892.53
2022-10-19T11:37:28.969Z,100883.31
2022-10-19T11:40:11.941Z,100893.75
2022-10-19T11:42:57.253Z,100896.88
2022-10-19T11:45:53.967Z,100889.59
2022-10-19T11:48:52.959Z,100894.75
2022-10-19T11:51:33.552Z,100888.84
2022-10-19T11:54:14.572Z,100897.63
2022-10-19T11:57:13.823Z,100900.72
2022-10-19T11:59:52.608Z,100888.41
2022-10-19T12:02:49.965Z,100895.06
2022-10-19T12:05:21.873Z,100881.03
2022-10-19T12:08:09.801Z,100891.75
2022-10-19T12:10:57.512Z,100888.19
2022-10-19T12:13:40.629Z,100886.53
2022-10-19T12:16:11.012Z,100874.81
2022-10-19T12:18:47.574Z,100871.28
2022-10-19T12:21:24.968Z,100875.31
2022-10-19T12:23:52.367Z,100867.28
2022-10-19T12:26:22.290Z,100872.94
2022-10-19T12:29:12.192Z,100866.84
2022-10-19T12:31:39.789Z,100873.00
2022-10-19T12:34:25.539Z,100861.09
2022-10-19T12:37:23.801Z,100858.88
2022-10-19T12:39:53.251Z,100865.13
2022-10-19T12:42:33.241Z,100863.31
2022-10-19T12:45:25.200Z,100859.66
2022-10-19T12:48:19.069Z,100855.41
2022-10-19T12:50:48.832Z,100850.22
2022-10-19T12:53:41.065Z,100850.38
2022-10-19T12:56:26.743Z,100851.97
2022-10-19T12:59:01.437Z,100849.97
2022-10-19T13:01:43.985Z,100840.75
2022-10-19T13:04:15.285Z,100844.81
2022-10-19T13:06:49.343Z,100837.97
2022-10-19T13:09:41.991Z,100830.81
2022-10-19T13:12:17.957Z,100828.50
2022-10-19T13:14:57.287Z,100833.72
2022-10-19T13:17:49.034Z,100828.97
2022-10-19T13:20:16.218Z,100834.97
2022-10-19T13:23:01.568Z,100819.19
2022-10-19T13:25:30.746Z,100815.28
2022-10-19T13:27:57.456Z,100830.66
2022-10-19T13:30:36.434Z,100833.53
2022-10-19T13:33:27.997Z,100833.00
2022-10-19T13:36:00.999Z,100832.03
2022-10-19T13:38:38.048Z,100838.34
2022-10-19T13:41:18.250Z,100844.03
2022-10-19T13:44:12.010Z,100835.03
2022-10-19T13:46:38.899Z,100840.19
2022-10-19T13:49:32.533Z,100848.47
2022-10-19T13:52:17.969Z,100849.94
2022-10-19T13:55:35.899Z,100847.59
2022-10-19T13:58:33.707Z,100843.81
2022-10-19T14:01:18.924Z,100840.31
2022-10-19T14:04:12.403Z,100839.84
2022-10-19T14:06:47.496Z,100839.78
2022-10-19T14:09:35.632Z,100839.00
2022-10-19T14:12:09.009Z,100849.56
2022-10-19T14:17:20.819Z,100848.13
2022-10-19T14:19:51.972Z,100843.16
2022-10-19T14:22:33.502Z,100843.81
2022-10-19T14:25:17.030Z,100839.69
2022-10-19T14:27:45.351Z,100850.78
2022-10-19T14:30:27.556Z,100854.81
2022-10-19T14:32:58.151Z,100853.38
2022-10-19T14:35:31.907Z,100844.88
2022-10-19T14:38:00.189Z,100853.50
2022-10-19T14:40:30.964Z,100854.25
2022-10-19T14:42:59.639Z,100847.47
2022-10-19T14:45:31.963Z,100851.59
2022-10-19T14:48:17.514Z,100848.72
2022-10-19T14:50:55.637Z,100854.03
2022-10-19T14:54:03.903Z,100842.91
2022-10-19T14:56:41.152Z,100846.28
2022-10-19T14:59:19.557Z,100851.16
2022-10-19T15:01:52.498Z,100849.94
2022-10-19T15:04:27.239Z,100839.34
2022-10-19T15:06:55.463Z,100845.38
2022-10-19T15:09:36.972Z,100845.25
2022-10-19T15:12:17.954Z,100856.81
2022-10-19T15:14:46.124Z,100847.53
2022-10-19T15:17:31.886Z,100847.84
2022-10-19T15:20:01.380Z,100847.69
2022-10-19T15:22:31.644Z,100853.00
2022-10-19T15:24:58.592Z,100859.84
2022-10-19T15:27:37.070Z,100853.06
2022-10-19T15:30:22.534Z,100846.94
2022-10-19T15:32:54.799Z,100827.88
2022-10-19T15:35:32.158Z,100826.56
2022-10-19T15:38:10.131Z,100826.78
2022-10-19T15:40:39.866Z,100844.03
2022-10-19T15:43:34.689Z,100850.88
2022-10-19T15:46:13.465Z,100861.31
2022-10-19T15:48:40.340Z,100863.97
2022-10-19T15:51:27.272Z,100867.09
2022-10-19T15:54:07.525Z,100871.44
2022-10-19T15:56:38.837Z,100860.59
2022-10-19T15:59:12.013Z,100862.22
2022-10-19T16:01:39.231Z,100882.28
2022-10-19T16:04:06.303Z,100890.91
2022-10-19T16:06:34.689Z,100893.16
2022-10-19T16:09:02.512Z,100907.94
2022-10-19T16:11:31.515Z,100903.78
2022-10-19T16:13:58.487Z,100912.53
2022-10-19T16:16:31.615Z,100911.34
2022-10-19T16:18:59.581Z,100912.19
2022-10-19T16:21:30.463Z,100918.44
2022-10-19T16:23:57.853Z,100918.38
2022-10-19T16:26:26.228Z,100903.38
2022-10-19T16:28:54.563Z,100911.22
2022-10-19T16:31:21.838Z,100900.38
2022-10-19T16:33:48.773Z,100896.41
2022-10-19T16:36:18.342Z,100902.47
2022-10-19T16:38:45.253Z,100902.66
2022-10-19T16:41:13.719Z,100927.16
2022-10-19T16:43:40.759Z,100932.31
2022-10-19T16:46:07.972Z,100943.03
2022-10-19T16:48:35.112Z,100948.34
2022-10-19T16:51:08.124Z,100941.75
2022-10-19T16:53:35.371Z,100942.81
2022-10-19T16:56:09.897Z,100942.53
2022-10-19T16:58:37.358Z,100943.88
2022-10-19T17:01:18.062Z,100941.81
2022-10-19T17:03:49.148Z,100939.88
2022-10-19T17:06:17.299Z,100952.63
2022-10-19T17:09:23.256Z,100950.94
2022-10-19T17:11:34.084Z,100949.63
2022-10-19T17:14:03.895Z,100957.75
2022-10-19T17:16:33.141Z,100957.97
2022-10-19T17:19:01.957Z,100955.97
2022-10-19T17:21:32.327Z,100966.44
2022-10-19T17:24:02.157Z,100965.00
2022-10-19T17:26:35.445Z,100966.88
2022-10-19T17:29:03.377Z,100958.19
2022-10-19T17:31:30.572Z,100975.16
2022-10-19T17:33:58.091Z,100978.44
2022-10-19T17:36:28.219Z,100975.53
2022-10-19T17:38:57.544Z,100983.66
2022-10-19T17:41:25.518Z,100980.25
2022-10-19T17:43:53.072Z,100983.28
2022-10-19T17:46:23.878Z,100978.19
2022-10-19T17:48:51.340Z,100984.66
2022-10-19T17:51:27.410Z,100988.63
2022-10-19T17:53:57.255Z,100989.59
2022-10-19T17:56:24.823Z,100995.94
2022-10-19T17:58:51.923Z,101005.00
2022-10-19T18:01:20.914Z,101000.91
2022-10-19T18:03:48.496Z,100991.53
2022-10-19T18:06:21.928Z,100983.78
2022-10-19T18:08:52.073Z,100985.75
2022-10-19T18:11:24.864Z,100990.84
2022-10-19T18:13:54.279Z,101007.84
2022-10-19T18:16:30.074Z,101003.94
2022-10-19T18:18:58.800Z,101015.75
2022-10-19T18:21:31.420Z,101017.78
2022-10-19T18:24:00.452Z,101025.41
2022-10-19T18:26:30.322Z,101034.41
2022-10-19T18:28:58.327Z,101037.03
2022-10-19T18:31:30.623Z,101040.69
2022-10-19T18:34:02.916Z,101029.03
2022-10-19T18:36:30.672Z,101029.09
2022-10-19T18:39:02.913Z,101032.78
2022-10-19T18:41:30.387Z,101034.31
2022-10-19T18:44:03.143Z,101037.66
2022-10-19T18:46:33.885Z,101035.44
2022-10-19T18:49:01.578Z,101030.66
2022-10-19T18:51:28.970Z,101047.97
2022-10-19T18:53:56.037Z,101054.53
2022-10-19T18:56:23.192Z,101051.97
2022-10-19T18:58:50.473Z,101050.50
2022-10-19T19:01:24.088Z,101061.09
2022-10-19T19:03:53.548Z,101078.13
2022-10-19T19:06:22.725Z,101069.91
2022-10-19T19:08:49.713Z,101062.38
2022-10-19T19:11:29.652Z,101074.22
2022-10-19T19:14:06.105Z,101056.63
2022-10-19T19:16:35.662Z,101063.75
2022-10-19T19:19:03.076Z,101065.38
2022-10-19T19:21:31.660Z,101055.97
2022-10-19T19:24:00.862Z,101055.81
2022-10-19T19:26:30.863Z,101067.72
2022-10-19T19:28:58.361Z,101060.22
2022-10-19T19:31:25.580Z,101058.03
2022-10-19T19:33:52.632Z,101066.16
2022-10-19T19:36:20.372Z,101068.13
2022-10-19T19:38:49.019Z,101074.50
2022-10-19T19:41:16.440Z,101086.38
2022-10-19T19:43:43.869Z,101097.09
2022-10-19T19:46:16.706Z,101107.94
2022-10-19T19:48:45.902Z,101097.63
2022-10-19T19:51:16.028Z,101095.31
2022-10-19T19:53:43.444Z,101099.19
2022-10-19T19:56:12.256Z,101099.88
2022-10-19T19:58:40.118Z,101107.88
2022-10-19T20:01:16.545Z,101098.41
2022-10-19T20:03:44.095Z,101106.06
2022-10-19T20:06:10.999Z,101111.66
2022-10-19T20:08:38.611Z,101109.25
2022-10-19T20:11:08.882Z,101114.66
2022-10-19T20:13:36.807Z,101119.19
2022-10-19T20:16:08.646Z,101121.72
2022-10-19T20:18:35.956Z,101116.06
2022-10-19T20:21:03.968Z,101125.88
2022-10-19T20:23:32.495Z,101126.06
2022-10-19T20:25:59.250Z,101138.69
2022-10-19T20:28:26.815Z,101138.03
2022-10-19T20:31:01.749Z,101135.69
2022-10-19T20:33:32.240Z,101139.72
2022-10-19T20:36:06.514Z,101146.03
2022-10-19T20:38:34.724Z,101151.66
2022-10-19T20:41:09.905Z,101149.16
2022-10-19T20:43:37.768Z,101145.59
2022-10-19T20:46:13.210Z,101149.28
2022-10-19T20:48:40.491Z,101151.16
2022-10-19T20:51:18.961Z,101153.03
2022-10-19T20:53:50.626Z,101154.13
2022-10-19T20:56:21.661Z,101153.03
2022-10-19T20:58:54.637Z,101158.47
2022-10-19T21:01:21.966Z,101160.38
2022-10-19T21:03:57.291Z,101157.31
2022-10-19T21:06:28.848Z,101157.56
2022-10-19T21:08:56.252Z,101163.78
2022-10-19T21:11:28.969Z,101168.25
2022-10-19T21:13:58.843Z,101177.94
2022-10-19T21:16:27.561Z,101173.00
2022-10-19T21:18:55.006Z,101175.25
2022-10-19T21:21:24.961Z,101165.75
2022-10-19T21:23:55.375Z,101159.34
2022-10-19T21:26:25.113Z,101166.81
2022-10-19T21:28:55.069Z,101178.63
2022-10-19T21:31:23.403Z,101178.88
2022-10-19T21:33:53.661Z,101176.66
2022-10-19T21:36:21.797Z,101177.41
2022-10-19T21:38:48.743Z,101174.81
2022-10-19T21:41:20.803Z,101176.25
2022-10-19T21:43:51.043Z,101178.88
2022-10-19T21:46:19.752Z,101188.44
2022-10-19T21:48:47.156Z,101185.66
2022-10-19T21:51:16.806Z,101184.19
2022-10-19T21:53:44.088Z,101183.00
2022-10-19T21:56:10.868Z,101191.13
2022-10-19T21:58:37.885Z,101196.06
2022-10-19T22:01:08.599Z,101200.38
2022-10-19T22:03:35.553Z,101189.25
2022-10-19T22:06:02.353Z,101191.88
2022-10-19T22:08:29.432Z,101196.06
2022-10-19T22:10:56.504Z,101192.75
2022-10-19T22:13:23.517Z,101185.84
2022-10-19T22:15:50.221Z,101188.25
2022-10-19T22:18:17.204Z,101188.25
2022-10-19T22:20:44.036Z,101183.25
2022-10-19T22:23:10.962Z,101189.75
2022-10-19T22:25:37.731Z,101177.56
2022-10-19T22:28:04.683Z,101184.78
2022-10-19T22:30:31.437Z,101182.09
2022-10-19T22:32:58.403Z,101176.97
2022-10-19T22:35:25.150Z,101171.88
2022-10-19T22:37:52.111Z,101179.78
2022-10-19T22:40:18.873Z,101175.56
2022-10-19T22:42:58.033Z,101184.41
2022-10-19T22:45:24.799Z,101182.41
2022-10-19T22:47:51.743Z,101179.22
2022-10-19T22:50:18.500Z,101184.94
2022-10-19T22:52:45.448Z,101186.88
2022-10-19T22:55:12.288Z,101186.06
2022-10-19T22:57:39.301Z,101189.66
2022-10-19T23:00:06.700Z,101191.44
2022-10-19T23:02:34.012Z,101182.41
2022-10-19T23:05:01.026Z,101187.03
2022-10-19T23:07:28.007Z,101189.81
2022-10-19T23:09:54.826Z,101200.44
2022-10-19T23:12:22.020Z,101196.78
2022-10-19T23:14:48.754Z,101194.75
2022-10-19T23:17:15.697Z,101196.44
2022-10-19T23:19:42.526Z,101205.53
2022-10-19T23:22:09.571Z,101204.56
2022-10-19T23:24:36.315Z,101210.69
2022-10-19T23:27:03.775Z,101215.44
2022-10-19T23:29:30.628Z,101215.44
2022-10-19T23:31:57.606Z,101218.97
2022-10-19T23:34:24.421Z,101223.31
2022-10-19T23:36:51.446Z,101217.28
2022-10-19T23:39:18.321Z,101215.50
2022-10-19T23:41:45.249Z,101226.88
2022-10-19T23:44:12.141Z,101217.19
2022-10-19T23:46:39.048Z,101218.63
2022-10-19T23:49:05.846Z,101217.34
2022-10-19T23:51:32.780Z,101213.94
2022-10-19T23:53:59.508Z,101229.19
2022-10-19T23:56:28.470Z,101231.84
2022-10-19T23:58:56.173Z,101229.91
